Time;durP1;ratioP1;P1;durP2;ratioP2;P2;SDS_P1;SDS_P2;PMS_P1;PMS_P2;Temp;Humidity;BMP_temperature;BMP_pressure;BME280_temperature;BME280_humidity;BME280_pressure;Samples;Min_cycle;Max_cycle;Signal;HPM_P1;HPM_P2
2022/05/18 00:02:15;;;;;;;38.65;24.63;;;;;;;;;;4362051;32;20351;-71
2022/05/18 00:04:40;;;;;;;33.67;24.95;;;;;;;;;;4362803;32;20125;-71
2022/05/18 00:07:06;;;;;;;40.07;26.90;;;;;;;;;;4362352;32;20026;-71
2022/05/18 00:09:31;;;;;;;32.33;26.58;;;;;;;;;;4362724;32;20150;-71
2022/05/18 00:11:56;;;;;;;30.52;25.92;;;;;;;;;;4363495;32;20070;-71
2022/05/18 00:14:21;;;;;;;31.77;27.93;;;;;;;;;;4362287;32;20428;-71
2022/05/18 00:16:46;;;;;;;32.63;27.73;;;;;;;;;;4362721;32;20199;-71
2022/05/18 00:19:11;;;;;;;33.03;28.07;;;;;;;;;;4360689;32;20023;-72
2022/05/18 00:21:37;;;;;;;35.90;27.23;;;;;;;;;;4362822;32;20178;-71
2022/05/18 00:24:03;;;;;;;37.22;27.35;;;;;;;;;;4363287;32;20192;-71
2022/05/18 00:26:29;;;;;;;32.97;28.45;;;;;;;;;;4362099;32;20076;-72
2022/05/18 00:28:54;;;;;;;36.03;29.25;;;;;;;;;;4362179;32;20027;-71
2022/05/18 00:31:19;;;;;;;33.72;28.75;;;;;;;;;;4360698;32;20023;-71
2022/05/18 00:33:45;;;;;;;38.05;31.20;;;;;;;;;;4361298;32;20143;-72
2022/05/18 00:36:10;;;;;;;34.47;30.27;;;;;;;;;;4360924;32;20080;-72
2022/05/18 00:38:35;;;;;;;34.25;30.50;;;;;;;;;;4369028;27;20055;-71
2022/05/18 00:41:01;;;;;;;35.08;29.70;;;;;;;;;;4346084;33;20089;-71
2022/05/18 00:43:29;;;;;;;33.13;29.55;;;;;;;;;;4347206;32;20147;-71
2022/05/18 00:45:54;;;;;;;35.97;32.10;;;;;;;;;;4348105;32;20410;-71
2022/05/18 00:48:19;;;;;;;40.55;32.92;;;;;;;;;;4348072;32;20058;-70
2022/05/18 00:50:45;;;;;;;38.03;34.00;;;;;;;;;;4346007;32;20457;-71
2022/05/18 00:53:13;;;;;;;39.28;34.30;;;;;;;;;;4347766;32;20163;-70
2022/05/18 00:55:40;;;;;;;41.47;34.70;;;;;;;;;;4346563;32;20402;-71
2022/05/18 00:58:17;;;;;;;42.42;34.00;;;;;;;;;;4347893;32;20058;-71
2022/05/18 01:00:42;;;;;;;39.65;35.40;;;;;;;;;;4347820;32;20090;-71
2022/05/18 01:03:14;;;;;;;38.50;32.30;;;;;;;;;;4344926;33;20414;-71
2022/05/18 01:05:40;;;;;;;39.35;33.75;;;;;;;;;;4347898;33;20089;-71
2022/05/18 01:08:06;;;;;;;43.05;35.85;;;;;;;;;;4357535;32;20086;-70
2022/05/18 01:10:31;;;;;;;40.60;36.33;;;;;;;;;;4346469;32;20026;-70
2022/05/18 01:12:57;;;;;;;41.08;35.97;;;;;;;;;;4346411;32;20090;-70
2022/05/18 01:15:22;;;;;;;38.72;34.33;;;;;;;;;;4346340;32;20420;-70
2022/05/18 01:17:50;;;;;;;45.47;35.28;;;;;;;;;;4346637;32;20028;-70
2022/05/18 01:20:20;;;;;;;42.15;33.85;;;;;;;;;;4348036;32;20032;-71
2022/05/18 01:22:51;;;;;;;38.83;31.45;;;;;;;;;;4347494;33;20058;-70
2022/05/18 01:25:22;;;;;;;36.78;32.80;;;;;;;;;;4346279;32;20085;-70
2022/05/18 01:27:48;;;;;;;49.38;33.40;;;;;;;;;;4346601;32;20087;-70
2022/05/18 01:30:13;;;;;;;38.67;33.35;;;;;;;;;;4348242;32;20020;-70
2022/05/18 01:32:40;;;;;;;39.80;32.13;;;;;;;;;;4374627;32;20544;-71
2022/05/18 01:35:05;;;;;;;42.72;32.78;;;;;;;;;;4359189;33;20085;-71
2022/05/18 01:37:30;;;;;;;47.58;35.30;;;;;;;;;;4361055;32;20031;-69
2022/05/18 01:39:58;;;;;;;39.47;34.25;;;;;;;;;;4360301;32;20088;-70
2022/05/18 01:42:27;;;;;;;39.00;33.85;;;;;;;;;;4360216;32;20123;-71
2022/05/18 01:44:52;;;;;;;42.60;32.80;;;;;;;;;;4361181;32;20442;-71
2022/05/18 01:47:17;;;;;;;38.35;33.45;;;;;;;;;;4373609;32;20023;-71
2022/05/18 01:49:44;;;;;;;43.63;36.42;;;;;;;;;;4360344;32;20054;-71
2022/05/18 01:52:10;;;;;;;44.72;37.55;;;;;;;;;;4359979;32;20032;-70
2022/05/18 01:54:43;;;;;;;45.08;36.30;;;;;;;;;;4358679;32;20035;-71
2022/05/18 01:57:08;;;;;;;44.65;37.22;;;;;;;;;;4362202;32;20035;-71
2022/05/18 01:59:34;;;;;;;45.35;37.30;;;;;;;;;;4360549;32;20028;-71
2022/05/18 02:01:59;;;;;;;43.17;36.33;;;;;;;;;;4362388;32;20452;-72
2022/05/18 02:04:25;;;;;;;43.20;37.25;;;;;;;;;;4360480;32;20091;-71
2022/05/18 02:06:50;;;;;;;46.50;39.95;;;;;;;;;;4361124;32;20414;-72
2022/05/18 02:09:16;;;;;;;47.00;37.88;;;;;;;;;;4361279;32;20053;-71
2022/05/18 02:11:42;;;;;;;52.75;40.03;;;;;;;;;;4373248;32;20043;-71
2022/05/18 02:14:09;;;;;;;43.75;37.78;;;;;;;;;;4360045;32;20027;-70
2022/05/18 02:16:34;;;;;;;44.47;38.28;;;;;;;;;;4373100;32;20323;-71
2022/05/18 02:18:59;;;;;;;41.78;37.28;;;;;;;;;;4360406;32;20057;-71
2022/05/18 02:21:24;;;;;;;40.88;35.58;;;;;;;;;;4360144;32;20412;-70
2022/05/18 02:23:50;;;;;;;46.28;37.83;;;;;;;;;;4360955;32;20027;-71
2022/05/18 02:26:16;;;;;;;40.37;35.27;;;;;;;;;;4360511;32;20154;-71
2022/05/18 02:28:41;;;;;;;42.83;34.22;;;;;;;;;;4360206;32;20123;-70
2022/05/18 02:31:06;;;;;;;43.63;37.47;;;;;;;;;;4361313;32;20099;-71
2022/05/18 02:33:32;;;;;;;43.33;37.97;;;;;;;;;;4360064;32;20027;-70
2022/05/18 02:35:57;;;;;;;45.38;38.10;;;;;;;;;;4360698;32;20334;-71
2022/05/18 02:38:22;;;;;;;51.30;36.00;;;;;;;;;;4370873;32;20047;-70
2022/05/18 02:40:47;;;;;;;41.30;34.15;;;;;;;;;;4358748;32;20128;-70
2022/05/18 02:43:12;;;;;;;45.12;35.70;;;;;;;;;;4359539;32;20128;-70
2022/05/18 02:45:38;;;;;;;43.25;35.38;;;;;;;;;;4348147;32;20592;-70
2022/05/18 02:48:03;;;;;;;40.55;35.47;;;;;;;;;;4344858;33;20155;-71
2022/05/18 02:50:28;;;;;;;49.70;37.97;;;;;;;;;;4343899;33;20023;-70
2022/05/18 02:52:53;;;;;;;47.88;37.15;;;;;;;;;;4345298;33;20061;-70
2022/05/18 02:58:03;;;;;;;41.92;35.42;;;;;;;;;;4346836;33;20085;-70
2022/05/18 03:00:28;;;;;;;40.88;34.55;;;;;;;;;;4344927;33;20036;-70
2022/05/18 03:02:53;;;;;;;41.58;34.60;;;;;;;;;;4345949;33;20403;-71
2022/05/18 03:05:18;;;;;;;43.65;34.38;;;;;;;;;;4357879;33;20086;-71
2022/05/18 03:07:43;;;;;;;39.63;32.92;;;;;;;;;;4345350;33;20024;-71
2022/05/18 03:10:09;;;;;;;47.20;35.53;;;;;;;;;;4344389;33;20191;-70
2022/05/18 03:12:34;;;;;;;49.20;34.67;;;;;;;;;;4346452;33;20116;-70
2022/05/18 03:15:00;;;;;;;43.50;35.78;;;;;;;;;;4357959;32;20089;-71
2022/05/18 03:17:25;;;;;;;44.15;34.78;;;;;;;;;;4360690;32;20126;-71
2022/05/18 03:19:50;;;;;;;47.20;36.85;;;;;;;;;;4357813;32;20023;-70
2022/05/18 03:25:00;;;;;;;42.85;36.30;;;;;;;;;;4360614;33;20116;-71
2022/05/18 03:27:25;;;;;;;51.53;37.95;;;;;;;;;;4347508;32;20051;-71
2022/05/18 03:29:51;;;;;;;47.95;35.83;;;;;;;;;;4345155;33;20143;-71
2022/05/18 03:32:16;;;;;;;48.63;37.42;;;;;;;;;;4344923;33;20036;-71
2022/05/18 03:34:41;;;;;;;49.42;37.58;;;;;;;;;;4346117;33;20027;-70
2022/05/18 03:37:06;;;;;;;52.15;36.58;;;;;;;;;;4346359;33;20373;-70
2022/05/18 03:39:31;;;;;;;47.00;36.38;;;;;;;;;;4344787;33;20292;-71
2022/05/18 03:41:57;;;;;;;51.55;37.58;;;;;;;;;;4346118;33;20020;-70
2022/05/18 03:44:22;;;;;;;47.30;39.13;;;;;;;;;;4346308;33;20588;-70
2022/05/18 03:46:47;;;;;;;48.38;37.92;;;;;;;;;;4361228;32;20056;-71
2022/05/18 03:49:12;;;;;;;52.67;38.53;;;;;;;;;;4361310;32;20322;-71
2022/05/18 03:51:38;;;;;;;51.20;39.78;;;;;;;;;;4360971;32;20028;-71
2022/05/18 03:54:04;;;;;;;51.37;38.80;;;;;;;;;;4359537;32;20027;-70
2022/05/18 03:56:29;;;;;;;53.70;38.30;;;;;;;;;;4359880;32;20394;-70
2022/05/18 03:58:55;;;;;;;49.17;38.75;;;;;;;;;;4358955;32;20069;-70
2022/05/18 04:01:20;;;;;;;51.30;39.75;;;;;;;;;;4359573;32;20027;-71
2022/05/18 04:03:46;;;;;;;48.85;39.47;;;;;;;;;;4358110;32;20065;-70
2022/05/18 04:06:11;;;;;;;47.00;38.75;;;;;;;;;;4361730;32;20099;-69
2022/05/18 04:08:36;;;;;;;51.67;37.88;;;;;;;;;;4362008;32;20420;-70
2022/05/18 04:11:02;;;;;;;47.92;38.58;;;;;;;;;;4362125;32;20019;-70
2022/05/18 04:13:28;;;;;;;43.08;36.53;;;;;;;;;;4362345;32;20027;-71
2022/05/18 04:15:54;;;;;;;49.42;36.40;;;;;;;;;;4362628;32;20051;-70
2022/05/18 04:18:20;;;;;;;48.92;36.90;;;;;;;;;;4362137;32;20058;-70
2022/05/18 04:20:45;;;;;;;47.88;36.28;;;;;;;;;;4360762;32;20039;-71
2022/05/18 04:23:11;;;;;;;45.97;35.97;;;;;;;;;;4363643;32;20022;-71
2022/05/18 04:25:36;;;;;;;45.17;36.63;;;;;;;;;;4360570;33;20390;-71
2022/05/18 04:28:02;;;;;;;45.63;36.00;;;;;;;;;;4363401;32;20027;-71
2022/05/18 04:30:28;;;;;;;44.83;38.05;;;;;;;;;;4362667;32;20094;-71
2022/05/18 04:32:53;;;;;;;46.47;35.83;;;;;;;;;;4362297;32;20069;-71
2022/05/18 04:35:20;;;;;;;47.35;34.92;;;;;;;;;;4363299;32;20039;-71
2022/05/18 04:37:45;;;;;;;44.78;35.83;;;;;;;;;;4362051;32;20435;-70
2022/05/18 04:40:11;;;;;;;43.08;34.45;;;;;;;;;;4361904;32;20106;-70
2022/05/18 04:42:37;;;;;;;42.97;34.10;;;;;;;;;;4363132;32;20031;-70
2022/05/18 04:45:03;;;;;;;43.03;34.60;;;;;;;;;;4355252;32;20043;-70
2022/05/18 04:47:28;;;;;;;40.30;33.38;;;;;;;;;;4348158;32;20032;-70
2022/05/18 04:49:55;;;;;;;44.73;34.00;;;;;;;;;;4344949;33;20107;-71
2022/05/18 04:52:20;;;;;;;44.33;36.40;;;;;;;;;;4345179;33;20190;-70
2022/05/18 04:54:46;;;;;;;51.72;37.70;;;;;;;;;;4348300;32;20322;-70
2022/05/18 04:57:11;;;;;;;44.80;33.95;;;;;;;;;;4347995;32;20054;-70
2022/05/18 04:59:36;;;;;;;39.83;32.57;;;;;;;;;;4358836;32;20027;-70
2022/05/18 05:02:02;;;;;;;42.03;33.17;;;;;;;;;;4347400;33;20564;-70
2022/05/18 05:04:27;;;;;;;44.30;36.40;;;;;;;;;;4348005;32;20024;-70
2022/05/18 05:06:53;;;;;;;48.22;34.22;;;;;;;;;;4347923;32;20028;-70
2022/05/18 05:09:22;;;;;;;39.17;32.20;;;;;;;;;;4346358;32;20039;-70
2022/05/18 05:11:47;;;;;;;40.00;31.67;;;;;;;;;;4347083;32;20402;-70
2022/05/18 05:14:12;;;;;;;41.63;32.30;;;;;;;;;;4346706;32;20074;-70
2022/05/18 05:16:37;;;;;;;36.28;29.70;;;;;;;;;;4345706;32;20218;-70
2022/05/18 05:19:02;;;;;;;37.23;28.73;;;;;;;;;;4347760;32;20020;-70
2022/05/18 05:21:27;;;;;;;48.53;31.73;;;;;;;;;;4357310;33;20151;-71
2022/05/18 05:23:53;;;;;;;38.42;29.45;;;;;;;;;;4357128;32;20105;-70
2022/05/18 05:26:18;;;;;;;39.30;30.23;;;;;;;;;;4346253;33;20177;-71
2022/05/18 05:28:43;;;;;;;38.37;30.60;;;;;;;;;;4347813;32;20138;-70
2022/05/18 05:31:09;;;;;;;42.78;30.48;;;;;;;;;;4348204;33;20125;-70
2022/05/18 05:33:35;;;;;;;34.60;28.55;;;;;;;;;;4348259;33;20417;-70
2022/05/18 05:36:00;;;;;;;40.88;29.87;;;;;;;;;;4347532;33;20055;-71
2022/05/18 05:38:26;;;;;;;44.78;30.85;;;;;;;;;;4351393;33;20044;-70
2022/05/18 05:40:51;;;;;;;38.22;29.50;;;;;;;;;;4347591;33;20027;-70
2022/05/18 05:43:17;;;;;;;38.63;29.40;;;;;;;;;;4347498;32;20050;-70
2022/05/18 05:45:42;;;;;;;40.00;28.05;;;;;;;;;;4343827;32;20087;-70
2022/05/18 05:48:08;;;;;;;37.58;28.55;;;;;;;;;;4332266;33;20415;-70
2022/05/18 05:50:33;;;;;;;34.53;29.00;;;;;;;;;;4331433;33;20024;-69
2022/05/18 05:52:59;;;;;;;35.80;28.73;;;;;;;;;;4344090;32;20058;-70
2022/05/18 05:55:24;;;;;;;36.72;27.55;;;;;;;;;;4332266;33;20175;-70
2022/05/18 05:57:51;;;;;;;38.40;27.95;;;;;;;;;;4330836;33;20389;-70
2022/05/18 06:00:16;;;;;;;44.28;27.85;;;;;;;;;;4330974;33;20055;-71
2022/05/18 06:02:43;;;;;;;30.27;25.08;;;;;;;;;;4332500;33;20040;-70
2022/05/18 06:05:08;;;;;;;29.83;23.70;;;;;;;;;;4332421;33;20054;-72
2022/05/18 06:07:34;;;;;;;32.45;24.00;;;;;;;;;;4330182;33;20095;-72
2022/05/18 06:09:59;;;;;;;31.10;23.83;;;;;;;;;;4330610;33;20127;-70
2022/05/18 06:12:25;;;;;;;31.98;22.13;;;;;;;;;;4330684;33;20403;-71
2022/05/18 06:14:51;;;;;;;36.60;24.35;;;;;;;;;;4351880;32;20124;-71
2022/05/18 06:17:16;;;;;;;38.83;24.55;;;;;;;;;;4355796;32;20086;-70
2022/05/18 06:19:41;;;;;;;34.03;22.70;;;;;;;;;;4346431;32;20109;-70
2022/05/18 06:22:07;;;;;;;31.90;22.08;;;;;;;;;;4344505;33;20088;-71
2022/05/18 06:24:32;;;;;;;26.73;20.08;;;;;;;;;;4346439;33;20129;-71
2022/05/18 06:26:57;;;;;;;20.97;17.33;;;;;;;;;;4357451;32;20031;-70
2022/05/18 06:29:23;;;;;;;25.70;16.08;;;;;;;;;;4348386;32;20592;-71
2022/05/18 06:31:48;;;;;;;21.75;14.45;;;;;;;;;;4360926;32;20106;-70
2022/05/18 06:34:13;;;;;;;17.83;14.38;;;;;;;;;;4343835;32;20132;-71
2022/05/18 06:36:38;;;;;;;23.53;16.23;;;;;;;;;;4355697;32;20066;-70
2022/05/18 06:39:03;;;;;;;15.32;12.18;;;;;;;;;;4348870;33;20136;-70
2022/05/18 06:41:29;;;;;;;22.95;13.18;;;;;;;;;;4361662;32;20031;-71
2022/05/18 06:43:55;;;;;;;25.95;13.10;;;;;;;;;;4351434;32;20049;-70
2022/05/18 06:46:21;;;;;;;15.05;11.25;;;;;;;;;;4347955;33;20059;-71
2022/05/18 06:48:47;;;;;;;20.23;13.18;;;;;;;;;;4348180;33;20054;-71
2022/05/18 06:51:13;;;;;;;18.48;11.10;;;;;;;;;;4356994;32;20073;-71
2022/05/18 06:53:39;;;;;;;18.73;12.10;;;;;;;;;;4350838;32;20040;-71
2022/05/18 06:56:04;;;;;;;21.92;11.40;;;;;;;;;;4347347;33;20391;-71
2022/05/18 06:58:29;;;;;;;19.95;10.60;;;;;;;;;;4346145;33;20063;-71
2022/05/18 07:00:54;;;;;;;19.70;11.12;;;;;;;;;;4350692;33;20151;-71
2022/05/18 07:03:19;;;;;;;21.00;11.87;;;;;;;;;;4352910;32;20532;-72
2022/05/18 07:05:44;;;;;;;20.15;11.50;;;;;;;;;;4350960;32;20150;-71
2022/05/18 07:08:10;;;;;;;15.73;11.05;;;;;;;;;;4344830;32;20128;-71
2022/05/18 07:10:35;;;;;;;15.65;9.48;;;;;;;;;;4347788;33;20145;-71
2022/05/18 07:13:00;;;;;;;16.65;8.90;;;;;;;;;;4358829;33;20039;-71
2022/05/18 07:15:26;;;;;;;14.55;8.52;;;;;;;;;;4352702;33;20053;-71
2022/05/18 07:17:51;;;;;;;14.98;8.07;;;;;;;;;;4359751;32;20485;-71
2022/05/18 07:20:16;;;;;;;21.45;8.43;;;;;;;;;;4356672;32;20475;-70
2022/05/18 07:22:41;;;;;;;13.38;8.05;;;;;;;;;;4346176;32;20315;-70
2022/05/18 07:25:06;;;;;;;16.77;8.15;;;;;;;;;;4346595;33;20055;-71
2022/05/18 07:27:32;;;;;;;16.80;8.30;;;;;;;;;;4347138;33;20458;-70
2022/05/18 07:29:57;;;;;;;15.20;8.20;;;;;;;;;;4357239;32;20058;-71
2022/05/18 07:32:22;;;;;;;12.63;7.63;;;;;;;;;;4348673;32;20473;-70
2022/05/18 07:34:48;;;;;;;12.77;7.80;;;;;;;;;;4345846;33;20151;-70
2022/05/18 07:37:14;;;;;;;10.77;7.47;;;;;;;;;;4347739;33;20311;-70
2022/05/18 07:39:39;;;;;;;16.62;8.30;;;;;;;;;;4349511;32;20098;-71
2022/05/18 07:42:06;;;;;;;13.57;7.75;;;;;;;;;;4341510;32;20438;-72
2022/05/18 07:44:31;;;;;;;16.85;7.68;;;;;;;;;;4346958;32;20414;-72
2022/05/18 07:46:57;;;;;;;20.70;8.18;;;;;;;;;;4357630;32;20023;-71
2022/05/18 07:49:22;;;;;;;15.27;7.93;;;;;;;;;;4351470;32;20028;-71
2022/05/18 07:51:47;;;;;;;14.23;7.97;;;;;;;;;;4358231;32;20100;-71
2022/05/18 07:54:12;;;;;;;12.77;8.90;;;;;;;;;;4361871;32;20136;-72
2022/05/18 07:56:38;;;;;;;17.42;8.75;;;;;;;;;;4355210;32;20353;-71
2022/05/18 07:59:04;;;;;;;14.35;8.10;;;;;;;;;;4357935;32;20067;-70
2022/05/18 08:01:29;;;;;;;20.70;9.18;;;;;;;;;;4349209;33;20099;-71
2022/05/18 08:03:54;;;;;;;14.75;8.70;;;;;;;;;;4362676;32;20023;-72
2022/05/18 08:06:19;;;;;;;15.52;9.00;;;;;;;;;;4354102;32;20521;-70
2022/05/18 08:08:45;;;;;;;15.15;8.60;;;;;;;;;;4361201;32;20024;-70
2022/05/18 08:16:38;;;;;;;21.35;11.00;;;;;;;;;;4351077;32;20050;-70
2022/05/18 08:19:06;;;;;;;20.20;10.03;;;;;;;;;;4349344;32;20024;-69
2022/05/18 08:21:31;;;;;;;16.73;10.23;;;;;;;;;;4355254;32;20211;-70
2022/05/18 08:23:56;;;;;;;18.77;10.70;;;;;;;;;;4347142;33;20444;-71
2022/05/18 08:26:21;;;;;;;17.48;9.80;;;;;;;;;;4348418;33;20054;-71
2022/05/18 08:28:46;;;;;;;15.75;10.63;;;;;;;;;;4350730;32;20070;-73
2022/05/18 08:31:12;;;;;;;20.85;11.07;;;;;;;;;;4348623;32;20201;-72
2022/05/18 08:33:37;;;;;;;15.80;11.02;;;;;;;;;;4347940;32;20023;-72
2022/05/18 08:36:04;;;;;;;22.98;12.52;;;;;;;;;;4356946;32;20047;-70
2022/05/18 08:38:29;;;;;;;23.62;11.80;;;;;;;;;;4346780;32;20136;-72
2022/05/18 08:41:04;;;;;;;21.50;12.73;;;;;;;;;;4355132;32;20050;-71
2022/05/18 08:43:31;;;;;;;22.55;12.88;;;;;;;;;;4358868;32;20155;-72
2022/05/18 08:45:59;;;;;;;22.70;14.38;;;;;;;;;;4362245;32;20058;-71
2022/05/18 08:48:34;;;;;;;26.15;14.13;;;;;;;;;;4347458;32;20040;-71
2022/05/18 08:51:03;;;;;;;28.12;14.38;;;;;;;;;;4348381;32;20062;-70
2022/05/18 08:53:39;;;;;;;23.33;13.07;;;;;;;;;;4348076;32;20035;-71
2022/05/18 08:56:17;;;;;;;24.77;13.02;;;;;;;;;;4347226;32;20095;-71
2022/05/18 08:58:49;;;;;;;26.02;13.75;;;;;;;;;;4347139;32;20387;-71
2022/05/18 09:01:21;;;;;;;25.45;13.88;;;;;;;;;;4349580;32;20044;-71
2022/05/18 09:04:08;;;;;;;21.83;14.00;;;;;;;;;;4345870;33;20066;-69
2022/05/18 09:06:33;;;;;;;;;;;;;;;;;;4355693;32;20058;-71
2022/05/18 09:11:49;;;;;;;21.17;13.93;;;;;;;;;;4347121;32;20055;-73
2022/05/18 09:14:17;;;;;;;23.10;13.98;;;;;;;;;;4345877;32;20035;-71
2022/05/18 09:16:44;;;;;;;22.05;13.15;;;;;;;;;;4347198;32;20058;-71
2022/05/18 09:19:15;;;;;;;23.35;13.25;;;;;;;;;;4345974;32;20028;-70
2022/05/18 09:21:47;;;;;;;24.73;16.02;;;;;;;;;;4351345;32;20075;-70
2022/05/18 09:24:18;;;;;;;23.62;13.80;;;;;;;;;;4347629;32;20032;-70
2022/05/18 09:27:06;;;;;;;29.02;13.85;;;;;;;;;;4350734;32;20035;-70
2022/05/18 09:29:50;;;;;;;23.38;14.40;;;;;;;;;;4348136;33;20023;-70
2022/05/18 09:32:35;;;;;;;26.65;15.48;;;;;;;;;;4345888;33;20085;-70
2022/05/18 09:35:22;;;;;;;25.52;13.62;;;;;;;;;;4357001;32;20492;-69
2022/05/18 09:37:55;;;;;;;17.62;12.63;;;;;;;;;;4365511;32;20043;-71
2022/05/18 09:40:20;;;;;;;20.67;12.10;;;;;;;;;;4357297;32;20143;-70
2022/05/18 09:42:48;;;;;;;21.03;13.10;;;;;;;;;;4348797;32;20023;-71
2022/05/18 09:45:16;;;;;;;22.17;13.30;;;;;;;;;;4350767;32;20179;-70
2022/05/18 09:47:51;;;;;;;22.92;12.43;;;;;;;;;;4349971;32;20410;-70
2022/05/18 09:50:16;;;;;;;24.63;13.82;;;;;;;;;;4346641;32;20028;-71
2022/05/18 09:52:43;;;;;;;21.42;12.52;;;;;;;;;;4344788;33;20500;-72
2022/05/18 09:55:10;;;;;;;20.33;13.60;;;;;;;;;;4350424;32;20096;-71
2022/05/18 09:57:38;;;;;;;20.77;11.68;;;;;;;;;;4350529;32;20035;-71
2022/05/18 10:00:06;;;;;;;22.73;11.63;;;;;;;;;;4352105;33;20185;-69
2022/05/18 10:08:09;;;;;;;16.85;11.50;;;;;;;;;;4340514;33;20039;-71
2022/05/18 10:10:38;;;;;;;18.48;13.07;;;;;;;;;;4344482;32;20023;-70
2022/05/18 10:13:09;;;;;;;17.45;10.52;;;;;;;;;;4348410;32;20093;-70
2022/05/18 10:15:40;;;;;;;22.87;11.65;;;;;;;;;;4360874;32;20073;-70
2022/05/18 10:18:16;;;;;;;18.12;11.48;;;;;;;;;;4360083;32;20061;-71
2022/05/18 10:20:41;;;;;;;17.65;10.57;;;;;;;;;;4371077;32;20038;-70
2022/05/18 10:23:36;;;;;;;18.65;10.90;;;;;;;;;;4366477;32;20078;-71
2022/05/18 10:26:03;;;;;;;15.88;10.20;;;;;;;;;;4332821;33;20051;-70
2022/05/18 10:28:29;;;;;;;16.15;9.98;;;;;;;;;;4353469;32;20058;-70
2022/05/18 10:30:59;;;;;;;21.17;10.95;;;;;;;;;;4355242;32;20036;-71
2022/05/18 10:33:36;;;;;;;20.98;11.23;;;;;;;;;;4353104;32;20035;-71
2022/05/18 10:36:12;;;;;;;18.98;11.20;;;;;;;;;;4343810;33;20035;-71
2022/05/18 10:38:38;;;;;;;24.65;12.48;;;;;;;;;;4344157;33;20058;-71
2022/05/18 10:41:03;;;;;;;14.95;10.23;;;;;;;;;;4345145;33;20304;-71
2022/05/18 10:43:34;;;;;;;13.30;9.57;;;;;;;;;;4350087;32;20347;-70
2022/05/18 10:46:01;;;;;;;13.45;9.30;;;;;;;;;;4354997;32;20389;-71
2022/05/18 10:48:27;;;;;;;18.27;10.20;;;;;;;;;;4345530;33;20378;-70
2022/05/18 10:51:10;;;;;;;12.77;8.95;;;;;;;;;;4346524;33;20418;-70
2022/05/18 10:53:40;;;;;;;13.23;8.55;;;;;;;;;;4343270;33;20284;-70
2022/05/18 10:56:08;;;;;;;13.82;8.80;;;;;;;;;;4347368;32;20047;-70
2022/05/18 10:58:35;;;;;;;14.07;7.20;;;;;;;;;;4351567;32;20071;-71
2022/05/18 11:01:22;;;;;;;14.10;7.45;;;;;;;;;;4339621;33;20479;-70
2022/05/18 11:03:57;;;;;;;12.20;6.82;;;;;;;;;;4342465;33;20077;-70
2022/05/18 11:06:25;;;;;;;12.27;6.20;;;;;;;;;;4345313;33;20093;-70
2022/05/18 11:08:51;;;;;;;13.10;6.00;;;;;;;;;;4343854;33;20394;-71
2022/05/18 11:11:27;;;;;;;8.48;5.07;;;;;;;;;;4344443;33;20079;-72
2022/05/18 11:13:55;;;;;;;8.73;4.93;;;;;;;;;;4355785;32;20397;-70
2022/05/18 11:16:25;;;;;;;10.73;4.10;;;;;;;;;;4361774;32;20386;-70
2022/05/18 11:19:04;;;;;;;9.88;4.20;;;;;;;;;;4359266;32;20248;-71
2022/05/18 11:21:38;;;;;;;9.15;4.20;;;;;;;;;;4351872;32;20437;-71
2022/05/18 11:24:07;;;;;;;8.00;4.47;;;;;;;;;;4348386;33;20391;-73
2022/05/18 11:26:39;;;;;;;7.87;3.90;;;;;;;;;;4348126;33;20357;-71
2022/05/18 11:29:23;;;;;;;12.23;4.50;;;;;;;;;;4348596;33;20027;-70
2022/05/18 11:31:52;;;;;;;10.18;4.43;;;;;;;;;;4350332;33;20193;-71
2022/05/18 11:34:26;;;;;;;10.15;4.12;;;;;;;;;;4350112;32;20440;-70
2022/05/18 11:37:00;;;;;;;10.00;5.18;;;;;;;;;;4348043;32;20452;-71
2022/05/18 11:39:42;;;;;;;7.12;4.95;;;;;;;;;;4346900;32;20066;-70
2022/05/18 11:42:10;;;;;;;11.80;4.65;;;;;;;;;;4348464;32;20163;-70
2022/05/18 11:44:41;;;;;;;14.45;5.18;;;;;;;;;;4349675;32;20036;-71
2022/05/18 11:47:06;;;;;;;8.85;4.20;;;;;;;;;;4353152;32;20075;-70
2022/05/18 11:49:58;;;;;;;7.80;4.00;;;;;;;;;;4347626;32;20069;-70
2022/05/18 11:52:24;;;;;;;8.48;4.97;;;;;;;;;;4346856;32;20124;-69
2022/05/18 11:55:10;;;;;;;8.82;4.72;;;;;;;;;;4347958;33;20126;-71
2022/05/18 11:57:47;;;;;;;10.27;5.53;;;;;;;;;;4359128;32;20043;-71
2022/05/18 12:00:50;;;;;;;10.63;4.90;;;;;;;;;;4359758;32;20035;-72
2022/05/18 12:03:34;;;;;;;10.52;4.40;;;;;;;;;;4348647;32;20058;-70
2022/05/18 12:06:15;;;;;;;7.18;4.32;;;;;;;;;;4347339;32;20159;-70
2022/05/18 12:09:06;;;;;;;15.18;5.60;;;;;;;;;;4348222;32;20438;-71
2022/05/18 12:11:42;;;;;;;7.95;3.67;;;;;;;;;;4347242;33;20027;-71
2022/05/18 12:14:16;;;;;;;8.68;4.53;;;;;;;;;;4360741;32;20079;-71
2022/05/18 12:16:44;;;;;;;9.55;4.62;;;;;;;;;;4362996;32;20097;-70
2022/05/18 12:19:09;;;;;;;8.70;4.50;;;;;;;;;;4361956;32;20032;-71
2022/05/18 12:21:38;;;;;;;9.32;4.85;;;;;;;;;;4363608;32;20054;-70
2022/05/18 12:24:04;;;;;;;8.85;4.10;;;;;;;;;;4362609;32;20433;-72
2022/05/18 12:26:31;;;;;;;6.43;3.72;;;;;;;;;;4363278;32;20062;-71
2022/05/18 12:28:56;;;;;;;8.20;4.10;;;;;;;;;;4359924;32;20027;-70
2022/05/18 12:31:22;;;;;;;8.57;4.22;;;;;;;;;;4361947;32;20054;-71
2022/05/18 12:34:02;;;;;;;8.50;4.28;;;;;;;;;;4361770;32;20053;-71
2022/05/18 12:36:54;;;;;;;6.15;3.53;;;;;;;;;;4362158;32;20039;-71
2022/05/18 12:39:25;;;;;;;6.05;4.12;;;;;;;;;;4359914;32;20039;-71
2022/05/18 12:41:54;;;;;;;8.40;3.78;;;;;;;;;;4363982;32;20024;-71
2022/05/18 12:44:37;;;;;;;8.50;3.83;;;;;;;;;;4361897;32;20074;-71
2022/05/18 12:47:09;;;;;;;8.13;3.65;;;;;;;;;;4363337;32;20069;-71
2022/05/18 12:49:38;;;;;;;7.72;4.18;;;;;;;;;;4363043;32;20023;-71
2022/05/18 12:52:05;;;;;;;6.60;3.78;;;;;;;;;;4361449;32;20327;-71
2022/05/18 12:54:53;;;;;;;8.45;4.12;;;;;;;;;;4362976;32;20062;-71
2022/05/18 12:57:44;;;;;;;7.82;3.90;;;;;;;;;;4362862;32;20077;-71
2022/05/18 13:00:13;;;;;;;8.85;4.25;;;;;;;;;;4361163;32;20027;-70
2022/05/18 13:02:43;;;;;;;8.10;4.10;;;;;;;;;;4361044;32;20055;-71
2022/05/18 13:05:10;;;;;;;8.95;3.78;;;;;;;;;;4362733;32;20028;-70
2022/05/18 13:07:35;;;;;;;6.25;3.72;;;;;;;;;;4356086;32;20027;-71
2022/05/18 13:10:10;;;;;;;9.20;4.25;;;;;;;;;;4340577;33;20405;-71
2022/05/18 13:12:37;;;;;;;8.85;3.80;;;;;;;;;;4355421;32;20065;-71
2022/05/18 13:15:08;;;;;;;8.30;4.65;;;;;;;;;;4352873;32;20119;-71
2022/05/18 13:17:51;;;;;;;7.22;4.20;;;;;;;;;;4347953;32;20581;-71
2022/05/18 13:20:26;;;;;;;6.50;4.32;;;;;;;;;;4347932;33;20027;-71
2022/05/18 13:23:01;;;;;;;10.40;3.80;;;;;;;;;;4347415;33;20408;-71
2022/05/18 13:25:32;;;;;;;6.57;3.28;;;;;;;;;;4342056;33;20028;-70
2022/05/18 13:27:58;;;;;;;6.30;4.10;;;;;;;;;;4331217;33;20028;-72
2022/05/18 13:30:52;;;;;;;6.95;4.30;;;;;;;;;;4328773;33;20101;-71
2022/05/18 13:33:18;;;;;;;10.27;4.00;;;;;;;;;;4329659;33;20051;-70
2022/05/18 13:35:46;;;;;;;10.10;3.50;;;;;;;;;;4329946;33;20082;-71
2022/05/18 13:38:22;;;;;;;6.47;3.50;;;;;;;;;;4330394;33;20422;-71
2022/05/18 13:40:47;;;;;;;;;;;;;;;;;;4332270;33;20016;-71
2022/05/18 13:43:20;;;;;;;9.40;3.50;;;;;;;;;;4349391;32;19935;-71
2022/05/18 13:45:50;;;;;;;5.45;3.42;;;;;;;;;;4362520;32;20028;-71
2022/05/18 13:48:15;;;;;;;6.80;3.87;;;;;;;;;;4361944;32;20035;-71
2022/05/18 13:50:43;;;;;;;9.70;3.62;;;;;;;;;;4361071;32;20127;-71
2022/05/18 13:53:11;;;;;;;7.93;3.25;;;;;;;;;;4362798;32;20057;-71
2022/05/18 13:55:39;;;;;;;7.03;3.15;;;;;;;;;;4361678;32;20035;-71
2022/05/18 13:58:07;;;;;;;6.28;4.25;;;;;;;;;;4362149;32;20066;-71
2022/05/18 14:00:32;;;;;;;8.48;3.45;;;;;;;;;;4362353;32;20429;-71
2022/05/18 14:02:59;;;;;;;7.00;3.20;;;;;;;;;;4361859;32;20022;-71
2022/05/18 14:05:28;;;;;;;8.45;3.75;;;;;;;;;;4364097;32;20106;-71
2022/05/18 14:07:53;;;;;;;8.88;3.97;;;;;;;;;;4361482;32;20101;-71
2022/05/18 14:10:20;;;;;;;8.98;3.90;;;;;;;;;;4347610;32;20027;-71
2022/05/18 14:12:46;;;;;;;10.32;3.75;;;;;;;;;;4354684;32;20452;-70
2022/05/18 14:15:12;;;;;;;6.55;3.50;;;;;;;;;;4363109;32;20054;-71
2022/05/18 14:17:37;;;;;;;5.85;4.10;;;;;;;;;;4357231;32;20028;-71
2022/05/18 14:20:02;;;;;;;7.22;4.50;;;;;;;;;;4355580;32;20069;-70
2022/05/18 14:22:29;;;;;;;6.30;3.87;;;;;;;;;;4343564;32;20061;-71
2022/05/18 14:25:08;;;;;;;6.80;3.87;;;;;;;;;;4344127;32;20125;-72
2022/05/18 14:27:45;;;;;;;9.73;3.87;;;;;;;;;;4346825;32;20082;-70
2022/05/18 14:30:30;;;;;;;7.18;4.32;;;;;;;;;;4346753;32;20081;-70
2022/05/18 14:32:58;;;;;;;7.57;3.67;;;;;;;;;;4344226;32;20420;-71
2022/05/18 14:35:27;;;;;;;10.57;4.20;;;;;;;;;;4351526;32;20080;-72
2022/05/18 14:37:55;;;;;;;8.73;4.40;;;;;;;;;;4342841;32;20032;-71
2022/05/18 14:40:22;;;;;;;7.25;4.60;;;;;;;;;;4359399;32;20114;-71
2022/05/18 14:42:48;;;;;;;13.70;4.90;;;;;;;;;;4352438;32;20051;-71
2022/05/18 14:45:16;;;;;;;7.53;4.30;;;;;;;;;;4357757;32;20058;-71
2022/05/18 14:47:41;;;;;;;10.93;4.40;;;;;;;;;;4344689;33;20405;-71
2022/05/18 14:50:13;;;;;;;10.95;4.20;;;;;;;;;;4346506;32;20366;-70